sensor_id;sensor_type;location;lat;lon;timestamp;pressure;altitude;pressure_sealevel;temperature;humidity
64687;BME280;51113;53.646;-113.674;2023-07-31T00:00:14;93389.69;;;25.72;52.36
64687;BME280;51113;53.646;-113.674;2023-07-31T00:02:43;93401.31;;;25.91;51.38
64687;BME280;51113;53.646;-113.674;2023-07-31T00:05:12;93404.66;;;25.84;51.44
64687;BME280;51113;53.646;-113.674;2023-07-31T00:07:40;93405.31;;;25.74;52.37
64687;BME280;51113;53.646;-113.674;2023-07-31T00:10:09;93408.41;;;25.80;52.43
64687;BME280;51113;53.646;-113.674;2023-07-31T00:12:41;93411.25;;;25.94;51.18
64687;BME280;51113;53.646;-113.674;2023-07-31T00:15:10;93418.75;;;25.85;50.57
64687;BME280;51113;53.646;-113.674;2023-07-31T00:17:39;93414.25;;;25.92;50.59
64687;BME280;51113;53.646;-113.674;2023-07-31T00:20:08;93410.00;;;25.84;51.10
64687;BME280;51113;53.646;-113.674;2023-07-31T00:22:37;93415.31;;;25.84;51.18
64687;BME280;51113;53.646;-113.674;2023-07-31T00:25:06;93411.03;;;25.76;52.30
64687;BME280;51113;53.646;-113.674;2023-07-31T00:27:34;93422.00;;;25.71;50.87
64687;BME280;51113;53.646;-113.674;2023-07-31T00:30:03;93427.19;;;25.64;52.47
64687;BME280;51113;53.646;-113.674;2023-07-31T00:32:32;93416.53;;;25.64;52.64
64687;BME280;51113;53.646;-113.674;2023-07-31T00:35:01;93405.50;;;25.62;53.31
64687;BME280;51113;53.646;-113.674;2023-07-31T00:37:30;93405.03;;;25.56;53.61
64687;BME280;51113;53.646;-113.674;2023-07-31T00:39:58;93397.41;;;25.55;53.34
64687;BME280;51113;53.646;-113.674;2023-07-31T00:42:27;93379.94;;;25.54;51.92
64687;BME280;51113;53.646;-113.674;2023-07-31T00:44:56;93376.72;;;25.67;51.71
64687;BME280;51113;53.646;-113.674;2023-07-31T00:47:25;93368.31;;;25.65;51.28
64687;BME280;51113;53.646;-113.674;2023-07-31T00:49:54;93358.78;;;25.64;51.46
64687;BME280;51113;53.646;-113.674;2023-07-31T00:52:23;93333.72;;;25.65;52.33
64687;BME280;51113;53.646;-113.674;2023-07-31T00:54:52;93331.63;;;25.52;53.44
64687;BME280;51113;53.646;-113.674;2023-07-31T00:57:20;93328.84;;;25.41;53.63
64687;BME280;51113;53.646;-113.674;2023-07-31T00:59:49;93324.16;;;25.31;54.03
64687;BME280;51113;53.646;-113.674;2023-07-31T01:02:18;93325.91;;;25.20;55.28
64687;BME280;51113;53.646;-113.674;2023-07-31T01:04:47;93319.59;;;25.01;56.28
64687;BME280;51113;53.646;-113.674;2023-07-31T01:07:42;93321.19;;;24.83;56.72
64687;BME280;51113;53.646;-113.674;2023-07-31T01:10:23;93317.00;;;24.82;57.38
64687;BME280;51113;53.646;-113.674;2023-07-31T01:12:56;93301.56;;;24.91;57.11
64687;BME280;51113;53.646;-113.674;2023-07-31T01:15:26;93301.69;;;24.72;57.75
64687;BME280;51113;53.646;-113.674;2023-07-31T01:17:55;93300.44;;;24.66;58.36
64687;BME280;51113;53.646;-113.674;2023-07-31T01:20:24;93311.31;;;24.57;58.86
64687;BME280;51113;53.646;-113.674;2023-07-31T01:28:45;93329.75;;;24.46;59.42
64687;BME280;51113;53.646;-113.674;2023-07-31T01:31:20;93341.84;;;24.44;59.41
64687;BME280;51113;53.646;-113.674;2023-07-31T01:33:51;93385.88;;;24.26;61.47
64687;BME280;51113;53.646;-113.674;2023-07-31T01:36:22;93403.31;;;24.04;62.23
64687;BME280;51113;53.646;-113.674;2023-07-31T01:38:50;93429.63;;;23.93;63.36
64687;BME280;51113;53.646;-113.674;2023-07-31T01:41:19;93440.06;;;23.32;67.02
64687;BME280;51113;53.646;-113.674;2023-07-31T01:43:48;93447.47;;;22.47;72.00
64687;BME280;51113;53.646;-113.674;2023-07-31T01:46:17;93455.03;;;22.33;72.50
64687;BME280;51113;53.646;-113.674;2023-07-31T01:48:46;93466.69;;;22.44;71.24
64687;BME280;51113;53.646;-113.674;2023-07-31T01:51:14;93466.72;;;22.60;70.17
64687;BME280;51113;53.646;-113.674;2023-07-31T01:53:43;93458.94;;;22.51;71.13
64687;BME280;51113;53.646;-113.674;2023-07-31T01:56:11;93459.84;;;22.43;71.88
64687;BME280;51113;53.646;-113.674;2023-07-31T01:58:40;93449.91;;;22.24;73.62
64687;BME280;51113;53.646;-113.674;2023-07-31T02:01:09;93449.81;;;22.21;74.80
64687;BME280;51113;53.646;-113.674;2023-07-31T02:03:37;93450.97;;;22.08;75.17
64687;BME280;51113;53.646;-113.674;2023-07-31T02:06:06;93442.59;;;22.06;75.49
64687;BME280;51113;53.646;-113.674;2023-07-31T02:08:35;93430.34;;;22.01;74.43
64687;BME280;51113;53.646;-113.674;2023-07-31T02:11:03;93435.53;;;21.98;73.25
64687;BME280;51113;53.646;-113.674;2023-07-31T02:13:32;93441.13;;;21.80;73.73
64687;BME280;51113;53.646;-113.674;2023-07-31T02:16:00;93444.56;;;21.69;73.64
64687;BME280;51113;53.646;-113.674;2023-07-31T02:18:29;93449.78;;;21.53;72.78
64687;BME280;51113;53.646;-113.674;2023-07-31T02:20:58;93460.38;;;21.41;73.81
64687;BME280;51113;53.646;-113.674;2023-07-31T02:23:27;93476.44;;;21.23;74.71
64687;BME280;51113;53.646;-113.674;2023-07-31T02:25:56;93470.91;;;20.92;75.11
64687;BME280;51113;53.646;-113.674;2023-07-31T02:28:24;93469.44;;;20.58;75.56
64687;BME280;51113;53.646;-113.674;2023-07-31T02:30:53;93458.09;;;20.24;75.77
64687;BME280;51113;53.646;-113.674;2023-07-31T02:33:22;93454.69;;;19.70;74.63
64687;BME280;51113;53.646;-113.674;2023-07-31T02:35:50;93453.53;;;19.29;74.24
64687;BME280;51113;53.646;-113.674;2023-07-31T02:38:19;93464.16;;;19.12;76.31
64687;BME280;51113;53.646;-113.674;2023-07-31T02:40:48;93457.16;;;18.87;74.86
64687;BME280;51113;53.646;-113.674;2023-07-31T02:43:17;93475.16;;;18.67;75.17
64687;BME280;51113;53.646;-113.674;2023-07-31T02:45:45;93463.75;;;18.46;74.08
64687;BME280;51113;53.646;-113.674;2023-07-31T02:48:14;93482.31;;;18.50;73.34
64687;BME280;51113;53.646;-113.674;2023-07-31T02:50:43;93490.22;;;18.41;73.72
64687;BME280;51113;53.646;-113.674;2023-07-31T02:53:12;93496.72;;;18.44;73.63
64687;BME280;51113;53.646;-113.674;2023-07-31T02:55:41;93516.53;;;18.41;73.59
64687;BME280;51113;53.646;-113.674;2023-07-31T02:58:09;93518.06;;;18.42;73.48
64687;BME280;51113;53.646;-113.674;2023-07-31T03:00:44;93526.44;;;18.27;73.58
64687;BME280;51113;53.646;-113.674;2023-07-31T03:03:13;93539.44;;;18.32;72.33
64687;BME280;51113;53.646;-113.674;2023-07-31T03:05:42;93542.06;;;18.23;72.42
64687;BME280;51113;53.646;-113.674;2023-07-31T03:08:11;93548.56;;;18.17;71.53
64687;BME280;51113;53.646;-113.674;2023-07-31T03:10:39;93549.50;;;18.04;71.51
64687;BME280;51113;53.646;-113.674;2023-07-31T03:13:08;93540.34;;;17.93;72.31
64687;BME280;51113;53.646;-113.674;2023-07-31T03:15:37;93527.69;;;17.86;72.63
64687;BME280;51113;53.646;-113.674;2023-07-31T03:18:05;93529.69;;;17.81;72.21
64687;BME280;51113;53.646;-113.674;2023-07-31T03:20:34;93533.25;;;17.85;71.55
64687;BME280;51113;53.646;-113.674;2023-07-31T03:23:03;93559.97;;;17.78;71.40
64687;BME280;51113;53.646;-113.674;2023-07-31T03:25:32;93576.50;;;17.79;71.47
64687;BME280;51113;53.646;-113.674;2023-07-31T03:28:00;93603.53;;;17.70;72.31
64687;BME280;51113;53.646;-113.674;2023-07-31T03:30:29;93591.25;;;17.49;71.88
64687;BME280;51113;53.646;-113.674;2023-07-31T03:32:58;93613.31;;;17.48;73.98
64687;BME280;51113;53.646;-113.674;2023-07-31T03:35:27;93623.38;;;17.54;72.40
64687;BME280;51113;53.646;-113.674;2023-07-31T03:37:55;93624.81;;;17.60;72.32
64687;BME280;51113;53.646;-113.674;2023-07-31T03:40:24;93637.63;;;17.62;71.59
64687;BME280;51113;53.646;-113.674;2023-07-31T03:42:53;93647.72;;;17.68;73.22
64687;BME280;51113;53.646;-113.674;2023-07-31T03:45:21;93647.53;;;17.65;75.20
64687;BME280;51113;53.646;-113.674;2023-07-31T03:47:50;93654.47;;;17.61;75.32
64687;BME280;51113;53.646;-113.674;2023-07-31T03:50:19;93659.63;;;17.66;75.16
64687;BME280;51113;53.646;-113.674;2023-07-31T03:52:48;93661.41;;;17.57;75.31
64687;BME280;51113;53.646;-113.674;2023-07-31T03:55:16;93671.78;;;17.62;75.22
64687;BME280;51113;53.646;-113.674;2023-07-31T03:57:46;93676.78;;;17.72;74.29
64687;BME280;51113;53.646;-113.674;2023-07-31T04:00:14;93675.28;;;17.80;74.85
64687;BME280;51113;53.646;-113.674;2023-07-31T04:02:42;93671.44;;;17.86;73.74
64687;BME280;51113;53.646;-113.674;2023-07-31T04:05:11;93666.34;;;17.89;74.05
64687;BME280;51113;53.646;-113.674;2023-07-31T04:07:40;93665.88;;;17.87;75.35
64687;BME280;51113;53.646;-113.674;2023-07-31T04:10:09;93657.03;;;17.83;76.31
64687;BME280;51113;53.646;-113.674;2023-07-31T04:12:39;93637.22;;;17.68;77.89
64687;BME280;51113;53.646;-113.674;2023-07-31T04:15:08;93618.13;;;17.54;79.79
64687;BME280;51113;53.646;-113.674;2023-07-31T04:17:37;93601.84;;;17.35;79.91
64687;BME280;51113;53.646;-113.674;2023-07-31T04:20:06;93572.94;;;17.26;78.80
64687;BME280;51113;53.646;-113.674;2023-07-31T04:22:35;93550.53;;;17.20;79.85
64687;BME280;51113;53.646;-113.674;2023-07-31T04:25:04;93531.06;;;17.21;77.70
64687;BME280;51113;53.646;-113.674;2023-07-31T04:27:33;93504.69;;;17.26;76.16
64687;BME280;51113;53.646;-113.674;2023-07-31T04:30:02;93471.31;;;17.18;77.44
64687;BME280;51113;53.646;-113.674;2023-07-31T04:32:31;93440.28;;;17.20;76.84
64687;BME280;51113;53.646;-113.674;2023-07-31T04:35:00;93387.03;;;17.28;77.34
64687;BME280;51113;53.646;-113.674;2023-07-31T04:37:28;93372.81;;;17.38;75.29
64687;BME280;51113;53.646;-113.674;2023-07-31T04:39:57;93372.97;;;17.41;73.69
64687;BME280;51113;53.646;-113.674;2023-07-31T04:42:26;93395.81;;;17.32;74.00
64687;BME280;51113;53.646;-113.674;2023-07-31T04:44:54;93438.28;;;17.34;77.41
64687;BME280;51113;53.646;-113.674;2023-07-31T04:47:23;93441.81;;;17.21;77.61
64687;BME280;51113;53.646;-113.674;2023-07-31T04:49:52;93424.69;;;17.24;76.79
64687;BME280;51113;53.646;-113.674;2023-07-31T04:52:21;93389.78;;;17.23;77.46
64687;BME280;51113;53.646;-113.674;2023-07-31T04:54:50;93390.41;;;17.20;78.63
64687;BME280;51113;53.646;-113.674;2023-07-31T04:57:18;93377.44;;;17.15;79.59
64687;BME280;51113;53.646;-113.674;2023-07-31T04:59:47;93362.59;;;17.10;79.89
64687;BME280;51113;53.646;-113.674;2023-07-31T05:02:17;93355.81;;;17.09;79.86
64687;BME280;51113;53.646;-113.674;2023-07-31T05:04:46;93367.22;;;17.05;80.50
64687;BME280;51113;53.646;-113.674;2023-07-31T05:07:15;93357.34;;;17.02;79.30
64687;BME280;51113;53.646;-113.674;2023-07-31T05:09:45;93349.63;;;17.05;78.66
64687;BME280;51113;53.646;-113.674;2023-07-31T05:12:13;93360.91;;;17.06;79.52
64687;BME280;51113;53.646;-113.674;2023-07-31T05:14:42;93359.50;;;17.00;79.50
64687;BME280;51113;53.646;-113.674;2023-07-31T05:17:10;93367.38;;;17.00;79.39
64687;BME280;51113;53.646;-113.674;2023-07-31T05:19:39;93370.63;;;16.97;80.52
64687;BME280;51113;53.646;-113.674;2023-07-31T05:22:08;93386.50;;;16.92;80.54
64687;BME280;51113;53.646;-113.674;2023-07-31T05:24:37;93378.31;;;16.85;81.00
64687;BME280;51113;53.646;-113.674;2023-07-31T05:27:06;93381.41;;;16.87;80.73
64687;BME280;51113;53.646;-113.674;2023-07-31T05:29:34;93377.06;;;16.82;81.75
64687;BME280;51113;53.646;-113.674;2023-07-31T05:32:03;93380.78;;;16.81;81.88
64687;BME280;51113;53.646;-113.674;2023-07-31T05:34:32;93382.28;;;16.73;82.35
64687;BME280;51113;53.646;-113.674;2023-07-31T05:37:00;93390.63;;;16.75;82.63
64687;BME280;51113;53.646;-113.674;2023-07-31T05:39:29;93383.84;;;16.74;82.84
64687;BME280;51113;53.646;-113.674;2023-07-31T05:41:58;93384.91;;;16.73;82.77
64687;BME280;51113;53.646;-113.674;2023-07-31T05:44:27;93394.94;;;16.71;82.64
64687;BME280;51113;53.646;-113.674;2023-07-31T05:46:55;93404.19;;;16.69;82.45
64687;BME280;51113;53.646;-113.674;2023-07-31T05:49:24;93408.66;;;16.68;82.64
64687;BME280;51113;53.646;-113.674;2023-07-31T05:51:53;93428.41;;;16.66;82.67
64687;BME280;51113;53.646;-113.674;2023-07-31T05:54:21;93441.31;;;16.62;83.36
64687;BME280;51113;53.646;-113.674;2023-07-31T05:56:49;93476.59;;;16.56;83.11
64687;BME280;51113;53.646;-113.674;2023-07-31T05:59:17;93515.19;;;16.11;85.76
64687;BME280;51113;53.646;-113.674;2023-07-31T06:01:46;93528.41;;;15.70;87.11
64687;BME280;51113;53.646;-113.674;2023-07-31T06:04:15;93506.91;;;15.95;85.51
64687;BME280;51113;53.646;-113.674;2023-07-31T06:06:43;93540.75;;;15.69;86.66
64687;BME280;51113;53.646;-113.674;2023-07-31T06:09:12;93559.84;;;15.56;86.87
64687;BME280;51113;53.646;-113.674;2023-07-31T06:11:41;93551.63;;;15.35;86.98
64687;BME280;51113;53.646;-113.674;2023-07-31T06:14:10;93541.13;;;15.35;86.45
64687;BME280;51113;53.646;-113.674;2023-07-31T06:16:38;93536.97;;;15.34;86.10
64687;BME280;51113;53.646;-113.674;2023-07-31T06:19:08;93533.28;;;15.35;85.27
64687;BME280;51113;53.646;-113.674;2023-07-31T06:21:37;93549.78;;;15.22;85.97
64687;BME280;51113;53.646;-113.674;2023-07-31T06:24:06;93560.63;;;15.15;85.11
64687;BME280;51113;53.646;-113.674;2023-07-31T06:26:35;93565.94;;;15.38;83.71
64687;BME280;51113;53.646;-113.674;2023-07-31T06:29:04;93562.94;;;15.44;83.09
64687;BME280;51113;53.646;-113.674;2023-07-31T06:31:33;93570.22;;;15.34;83.54
64687;BME280;51113;53.646;-113.674;2023-07-31T06:34:02;93583.69;;;15.27;83.84
64687;BME280;51113;53.646;-113.674;2023-07-31T06:36:30;93582.72;;;15.23;83.86
64687;BME280;51113;53.646;-113.674;2023-07-31T06:38:59;93587.75;;;15.06;84.68
64687;BME280;51113;53.646;-113.674;2023-07-31T06:41:28;93603.03;;;14.99;85.30
64687;BME280;51113;53.646;-113.674;2023-07-31T06:43:56;93608.44;;;14.89;85.40
64687;BME280;51113;53.646;-113.674;2023-07-31T06:46:25;93615.41;;;14.79;85.51
64687;BME280;51113;53.646;-113.674;2023-07-31T06:48:53;93621.84;;;14.68;86.22
64687;BME280;51113;53.646;-113.674;2023-07-31T06:51:23;93623.78;;;14.63;86.37
64687;BME280;51113;53.646;-113.674;2023-07-31T06:53:51;93623.66;;;14.54;86.91
64687;BME280;51113;53.646;-113.674;2023-07-31T06:56:21;93623.06;;;14.38;86.79
64687;BME280;51113;53.646;-113.674;2023-07-31T06:58:49;93623.84;;;14.39;87.55
64687;BME280;51113;53.646;-113.674;2023-07-31T07:01:18;93621.66;;;14.27;87.33
64687;BME280;51113;53.646;-113.674;2023-07-31T07:03:47;93619.56;;;14.10;88.02
64687;BME280;51113;53.646;-113.674;2023-07-31T07:06:19;93623.94;;;13.96;88.45
64687;BME280;51113;53.646;-113.674;2023-07-31T07:08:47;93625.25;;;13.94;89.03
64687;BME280;51113;53.646;-113.674;2023-07-31T07:11:16;93628.59;;;13.99;89.13
64687;BME280;51113;53.646;-113.674;2023-07-31T07:13:45;93643.75;;;13.97;89.21
64687;BME280;51113;53.646;-113.674;2023-07-31T07:16:13;93654.59;;;13.85;89.75
64687;BME280;51113;53.646;-113.674;2023-07-31T07:18:42;93656.56;;;13.75;89.98
64687;BME280;51113;53.646;-113.674;2023-07-31T07:21:29;93671.28;;;13.66;90.46
64687;BME280;51113;53.646;-113.674;2023-07-31T07:23:59;93659.34;;;13.60;90.76
64687;BME280;51113;53.646;-113.674;2023-07-31T07:26:27;93655.75;;;13.55;90.79
64687;BME280;51113;53.646;-113.674;2023-07-31T07:28:56;93651.81;;;13.58;91.25
64687;BME280;51113;53.646;-113.674;2023-07-31T07:31:28;93650.06;;;13.48;91.41
64687;BME280;51113;53.646;-113.674;2023-07-31T07:33:57;93644.63;;;13.45;91.43
64687;BME280;51113;53.646;-113.674;2023-07-31T07:36:27;93651.63;;;13.49;91.55
64687;BME280;51113;53.646;-113.674;2023-07-31T07:38:57;93654.75;;;13.51;91.27
64687;BME280;51113;53.646;-113.674;2023-07-31T07:41:25;93650.97;;;13.63;90.96
64687;BME280;51113;53.646;-113.674;2023-07-31T07:43:54;93651.31;;;13.56;91.45
64687;BME280;51113;53.646;-113.674;2023-07-31T07:46:23;93659.16;;;13.27;91.60
64687;BME280;51113;53.646;-113.674;2023-07-31T07:48:51;93646.72;;;13.19;92.13
64687;BME280;51113;53.646;-113.674;2023-07-31T07:51:20;93636.59;;;13.12;92.29
64687;BME280;51113;53.646;-113.674;2023-07-31T07:53:49;93637.16;;;13.09;92.73
64687;BME280;51113;53.646;-113.674;2023-07-31T07:56:17;93633.31;;;13.02;92.79
64687;BME280;51113;53.646;-113.674;2023-07-31T07:58:49;93624.66;;;13.06;92.82
64687;BME280;51113;53.646;-113.674;2023-07-31T08:01:18;93620.28;;;13.02;92.79
64687;BME280;51113;53.646;-113.674;2023-07-31T08:03:47;93605.97;;;12.99;92.78
64687;BME280;51113;53.646;-113.674;2023-07-31T08:06:16;93622.28;;;13.10;92.80
64687;BME280;51113;53.646;-113.674;2023-07-31T08:08:45;93623.72;;;12.97;92.40
64687;BME280;51113;53.646;-113.674;2023-07-31T08:11:13;93626.59;;;12.96;92.97
64687;BME280;51113;53.646;-113.674;2023-07-31T08:13:42;93625.03;;;12.94;92.48
64687;BME280;51113;53.646;-113.674;2023-07-31T08:16:10;93630.47;;;12.98;92.49
64687;BME280;51113;53.646;-113.674;2023-07-31T08:18:39;93634.25;;;13.11;92.69
64687;BME280;51113;53.646;-113.674;2023-07-31T08:21:08;93634.78;;;13.13;92.41
64687;BME280;51113;53.646;-113.674;2023-07-31T08:23:38;93630.59;;;13.12;93.30
64687;BME280;51113;53.646;-113.674;2023-07-31T08:26:06;93630.59;;;13.17;93.23
64687;BME280;51113;53.646;-113.674;2023-07-31T08:28:35;93632.41;;;13.16;93.00
64687;BME280;51113;53.646;-113.674;2023-07-31T08:31:05;93616.06;;;13.06;93.32
64687;BME280;51113;53.646;-113.674;2023-07-31T08:33:33;93622.44;;;12.94;93.54
64687;BME280;51113;53.646;-113.674;2023-07-31T08:36:02;93621.47;;;12.85;94.32
64687;BME280;51113;53.646;-113.674;2023-07-31T08:38:32;93622.28;;;12.81;94.66
64687;BME280;51113;53.646;-113.674;2023-07-31T08:41:03;93616.13;;;12.72;94.77
64687;BME280;51113;53.646;-113.674;2023-07-31T08:43:33;93606.16;;;12.79;94.44
64687;BME280;51113;53.646;-113.674;2023-07-31T08:46:02;93621.84;;;12.74;94.58
64687;BME280;51113;53.646;-113.674;2023-07-31T08:48:31;93615.56;;;12.75;94.19
64687;BME280;51113;53.646;-113.674;2023-07-31T08:51:01;93607.25;;;12.73;94.18
64687;BME280;51113;53.646;-113.674;2023-07-31T08:53:30;93608.13;;;12.63;93.56
64687;BME280;51113;53.646;-113.674;2023-07-31T08:55:59;93610.16;;;12.66;93.71
64687;BME280;51113;53.646;-113.674;2023-07-31T08:58:31;93602.16;;;12.57;94.63
64687;BME280;51113;53.646;-113.674;2023-07-31T09:01:01;93600.94;;;12.50;95.07
64687;BME280;51113;53.646;-113.674;2023-07-31T09:03:34;93608.75;;;12.50;94.99
64687;BME280;51113;53.646;-113.674;2023-07-31T09:06:05;93610.03;;;12.52;94.93
64687;BME280;51113;53.646;-113.674;2023-07-31T09:08:35;93619.75;;;12.42;94.54
64687;BME280;51113;53.646;-113.674;2023-07-31T09:11:06;93618.69;;;12.43;94.16
64687;BME280;51113;53.646;-113.674;2023-07-31T09:13:35;93622.22;;;12.57;95.93
64687;BME280;51113;53.646;-113.674;2023-07-31T09:16:05;93621.44;;;12.56;95.43
64687;BME280;51113;53.646;-113.674;2023-07-31T09:18:53;93632.94;;;12.55;95.30
64687;BME280;51113;53.646;-113.674;2023-07-31T09:21:22;93624.34;;;12.55;95.62
64687;BME280;51113;53.646;-113.674;2023-07-31T09:23:52;93626.16;;;12.54;95.34
64687;BME280;51113;53.646;-113.674;2023-07-31T09:26:32;93626.00;;;12.41;96.35
64687;BME280;51113;53.646;-113.674;2023-07-31T09:29:04;93630.94;;;12.42;96.42
64687;BME280;51113;53.646;-113.674;2023-07-31T09:31:41;93628.63;;;12.36;95.94
64687;BME280;51113;53.646;-113.674;2023-07-31T09:34:10;93631.00;;;12.32;95.62
64687;BME280;51113;53.646;-113.674;2023-07-31T09:36:50;93632.28;;;12.35;95.64
64687;BME280;51113;53.646;-113.674;2023-07-31T09:39:19;93635.72;;;12.30;95.94
64687;BME280;51113;53.646;-113.674;2023-07-31T09:41:55;93632.09;;;12.26;96.00
64687;BME280;51113;53.646;-113.674;2023-07-31T09:44:40;93627.66;;;12.26;96.56
64687;BME280;51113;53.646;-113.674;2023-07-31T09:47:22;93626.53;;;12.38;96.69
64687;BME280;51113;53.646;-113.674;2023-07-31T09:49:54;93619.03;;;12.31;95.97
64687;BME280;51113;53.646;-113.674;2023-07-31T09:52:26;93617.00;;;12.23;95.99
64687;BME280;51113;53.646;-113.674;2023-07-31T09:54:55;93616.97;;;12.28;96.47
64687;BME280;51113;53.646;-113.674;2023-07-31T09:57:24;93611.59;;;12.14;96.59
64687;BME280;51113;53.646;-113.674;2023-07-31T09:59:54;93617.84;;;12.13;96.54
64687;BME280;51113;53.646;-113.674;2023-07-31T10:02:23;93617.09;;;12.08;96.72
64687;BME280;51113;53.646;-113.674;2023-07-31T10:04:56;93621.31;;;12.04;96.64
64687;BME280;51113;53.646;-113.674;2023-07-31T10:07:28;93620.22;;;12.10;96.99
64687;BME280;51113;53.646;-113.674;2023-07-31T10:09:59;93623.28;;;12.22;96.45
64687;BME280;51113;53.646;-113.674;2023-07-31T10:12:32;93633.38;;;12.28;96.37
64687;BME280;51113;53.646;-113.674;2023-07-31T10:15:01;93619.75;;;12.42;96.99
64687;BME280;51113;53.646;-113.674;2023-07-31T10:17:31;93631.09;;;12.56;96.54
64687;BME280;51113;53.646;-113.674;2023-07-31T10:20:00;93623.78;;;12.58;96.74
64687;BME280;51113;53.646;-113.674;2023-07-31T10:22:32;93627.53;;;12.47;95.95
64687;BME280;51113;53.646;-113.674;2023-07-31T10:25:02;93629.25;;;12.22;95.57
64687;BME280;51113;53.646;-113.674;2023-07-31T10:27:31;93627.94;;;12.25;96.08
64687;BME280;51113;53.646;-113.674;2023-07-31T10:29:59;93629.81;;;12.14;97.12
64687;BME280;51113;53.646;-113.674;2023-07-31T10:32:32;93632.47;;;12.09;96.69
64687;BME280;51113;53.646;-113.674;2023-07-31T10:35:03;93629.88;;;12.04;97.14
64687;BME280;51113;53.646;-113.674;2023-07-31T10:37:42;93633.28;;;12.00;97.83
64687;BME280;51113;53.646;-113.674;2023-07-31T10:40:16;93640.03;;;12.06;97.75
64687;BME280;51113;53.646;-113.674;2023-07-31T10:42:52;93644.69;;;12.09;98.04
64687;BME280;51113;53.646;-113.674;2023-07-31T10:48:07;93641.41;;;12.37;98.20
64687;BME280;51113;53.646;-113.674;2023-07-31T10:50:56;93647.38;;;12.38;97.98
64687;BME280;51113;53.646;-113.674;2023-07-31T10:53:26;93651.50;;;12.44;97.82
64687;BME280;51113;53.646;-113.674;2023-07-31T10:56:03;93654.09;;;12.44;97.35
64687;BME280;51113;53.646;-113.674;2023-07-31T10:58:33;93659.78;;;12.51;97.33
64687;BME280;51113;53.646;-113.674;2023-07-31T11:01:05;93658.19;;;12.55;97.19
64687;BME280;51113;53.646;-113.674;2023-07-31T11:03:48;93657.22;;;12.46;97.22
64687;BME280;51113;53.646;-113.674;2023-07-31T11:06:18;93655.94;;;12.43;97.18
64687;BME280;51113;53.646;-113.674;2023-07-31T11:08:48;93659.38;;;12.34;97.24
64687;BME280;51113;53.646;-113.674;2023-07-31T11:11:18;93653.16;;;12.29;97.45
64687;BME280;51113;53.646;-113.674;2023-07-31T11:13:48;93649.25;;;12.32;97.52
64687;BME280;51113;53.646;-113.674;2023-07-31T11:16:19;93645.78;;;12.42;97.40
64687;BME280;51113;53.646;-113.674;2023-07-31T11:18:49;93643.88;;;12.52;97.39
64687;BME280;51113;53.646;-113.674;2023-07-31T11:21:21;93639.69;;;12.56;97.62
64687;BME280;51113;53.646;-113.674;2023-07-31T11:23:56;93636.81;;;12.58;97.85
64687;BME280;51113;53.646;-113.674;2023-07-31T11:26:28;93639.66;;;12.61;97.75
64687;BME280;51113;53.646;-113.674;2023-07-31T11:28:58;93627.69;;;12.60;97.60
64687;BME280;51113;53.646;-113.674;2023-07-31T11:31:27;93623.66;;;12.73;97.58
64687;BME280;51113;53.646;-113.674;2023-07-31T11:34:06;93616.03;;;12.82;97.51
64687;BME280;51113;53.646;-113.674;2023-07-31T11:36:34;93624.34;;;12.84;97.26
64687;BME280;51113;53.646;-113.674;2023-07-31T11:39:10;93625.56;;;12.63;97.13
64687;BME280;51113;53.646;-113.674;2023-07-31T11:41:42;93624.78;;;12.62;97.43
64687;BME280;51113;53.646;-113.674;2023-07-31T11:44:11;93626.91;;;12.60;97.55
64687;BME280;51113;53.646;-113.674;2023-07-31T11:46:56;93636.88;;;12.48;97.61
64687;BME280;51113;53.646;-113.674;2023-07-31T11:49:25;93635.38;;;12.42;97.65
64687;BME280;51113;53.646;-113.674;2023-07-31T11:51:54;93640.19;;;12.24;97.65
64687;BME280;51113;53.646;-113.674;2023-07-31T11:54:23;93639.91;;;12.26;98.02
64687;BME280;51113;53.646;-113.674;2023-07-31T11:56:52;93646.97;;;12.20;97.63
64687;BME280;51113;53.646;-113.674;2023-07-31T11:59:21;93653.75;;;12.16;97.84
64687;BME280;51113;53.646;-113.674;2023-07-31T12:01:50;93662.19;;;12.42;97.57
64687;BME280;51113;53.646;-113.674;2023-07-31T12:04:21;93658.09;;;12.31;97.34
64687;BME280;51113;53.646;-113.674;2023-07-31T12:06:52;93665.88;;;11.87;96.94
64687;BME280;51113;53.646;-113.674;2023-07-31T12:09:24;93653.94;;;11.86;97.17
64687;BME280;51113;53.646;-113.674;2023-07-31T12:11:54;93650.84;;;11.79;97.38
64687;BME280;51113;53.646;-113.674;2023-07-31T12:14:27;93645.63;;;11.79;97.93
64687;BME280;51113;53.646;-113.674;2023-07-31T12:17:04;93651.38;;;11.71;97.15
64687;BME280;51113;53.646;-113.674;2023-07-31T12:19:33;93642.50;;;11.77;98.13
64687;BME280;51113;53.646;-113.674;2023-07-31T12:22:14;93637.78;;;11.89;97.18
64687;BME280;51113;53.646;-113.674;2023-07-31T12:24:44;93648.19;;;11.89;97.23
64687;BME280;51113;53.646;-113.674;2023-07-31T12:27:14;93636.44;;;11.96;96.98
64687;BME280;51113;53.646;-113.674;2023-07-31T12:29:43;93637.13;;;12.12;96.78
64687;BME280;51113;53.646;-113.674;2023-07-31T12:32:20;93635.31;;;12.13;96.72
64687;BME280;51113;53.646;-113.674;2023-07-31T12:34:48;93630.88;;;12.13;96.22
64687;BME280;51113;53.646;-113.674;2023-07-31T12:37:17;93628.53;;;12.12;96.06
64687;BME280;51113;53.646;-113.674;2023-07-31T12:39:45;93630.06;;;12.18;95.79
64687;BME280;51113;53.646;-113.674;2023-07-31T12:42:17;93619.16;;;12.11;95.61
64687;BME280;51113;53.646;-113.674;2023-07-31T12:44:46;93608.69;;;12.21;94.83
64687;BME280;51113;53.646;-113.674;2023-07-31T12:47:15;93606.59;;;12.23;95.41
64687;BME280;51113;53.646;-113.674;2023-07-31T12:49:43;93621.97;;;12.19;95.20
64687;BME280;51113;53.646;-113.674;2023-07-31T12:52:12;93633.19;;;12.20;95.85